sensor_id;sensor_type;location;lat;lon;timestamp;temperature;humidity
5200;DHT22;2619;47.868;11.892;2023-04-03T00:01:06;2.30;99.90
5200;DHT22;2619;47.868;11.892;2023-04-03T00:03:32;2.20;99.90
5200;DHT22;2619;47.868;11.892;2023-04-03T00:05:58;2.20;99.90
5200;DHT22;2619;47.868;11.892;2023-04-03T00:08:24;2.30;99.90
5200;DHT22;2619;47.868;11.892;2023-04-03T00:10:49;2.20;99.90
5200;DHT22;2619;47.868;11.892;2023-04-03T00:13:15;2.20;99.90
5200;DHT22;2619;47.868;11.892;2023-04-03T00:15:41;2.20;99.90
5200;DHT22;2619;47.868;11.892;2023-04-03T00:18:07;2.20;99.90
5200;DHT22;2619;47.868;11.892;2023-04-03T00:20:33;2.10;99.90
5200;DHT22;2619;47.868;11.892;2023-04-03T00:23:00;2.10;99.90
5200;DHT22;2619;47.868;11.892;2023-04-03T00:25:26;2.20;99.90
5200;DHT22;2619;47.868;11.892;2023-04-03T00:27:52;2.20;99.90
5200;DHT22;2619;47.868;11.892;2023-04-03T00:30:20;2.20;99.90
5200;DHT22;2619;47.868;11.892;2023-04-03T00:32:48;2.20;99.90
5200;DHT22;2619;47.868;11.892;2023-04-03T00:35:14;2.20;99.90
5200;DHT22;2619;47.868;11.892;2023-04-03T00:37:41;2.20;99.90
5200;DHT22;2619;47.868;11.892;2023-04-03T00:40:08;2.20;99.90
5200;DHT22;2619;47.868;11.892;2023-04-03T00:42:33;2.20;99.90
5200;DHT22;2619;47.868;11.892;2023-04-03T00:47:27;2.20;99.90
5200;DHT22;2619;47.868;11.892;2023-04-03T00:49:53;2.20;99.90
5200;DHT22;2619;47.868;11.892;2023-04-03T00:52:22;2.20;99.90
5200;DHT22;2619;47.868;11.892;2023-04-03T00:54:50;2.20;99.90
5200;DHT22;2619;47.868;11.892;2023-04-03T00:57:17;2.20;99.90
5200;DHT22;2619;47.868;11.892;2023-04-03T00:59:46;2.20;99.90
5200;DHT22;2619;47.868;11.892;2023-04-03T01:02:14;2.20;99.90
5200;DHT22;2619;47.868;11.892;2023-04-03T01:04:42;2.20;99.90
5200;DHT22;2619;47.868;11.892;2023-04-03T01:07:18;2.10;99.90
5200;DHT22;2619;47.868;11.892;2023-04-03T01:09:45;2.00;99.90
5200;DHT22;2619;47.868;11.892;2023-04-03T01:12:20;2.00;99.90
5200;DHT22;2619;47.868;11.892;2023-04-03T01:14:48;2.00;99.90
5200;DHT22;2619;47.868;11.892;2023-04-03T01:25:40;1.80;99.90
5200;DHT22;2619;47.868;11.892;2023-04-03T01:28:08;1.80;99.90
5200;DHT22;2619;47.868;11.892;2023-04-03T01:30:40;1.80;99.90
5200;DHT22;2619;47.868;11.892;2023-04-03T01:33:06;1.80;99.90
5200;DHT22;2619;47.868;11.892;2023-04-03T01:35:32;1.90;99.90
5200;DHT22;2619;47.868;11.892;2023-04-03T01:37:57;1.90;99.90
5200;DHT22;2619;47.868;11.892;2023-04-03T01:40:23;1.90;99.90
5200;DHT22;2619;47.868;11.892;2023-04-03T01:42:49;1.80;99.90
5200;DHT22;2619;47.868;11.892;2023-04-03T01:45:15;1.90;99.90
5200;DHT22;2619;47.868;11.892;2023-04-03T01:47:40;1.90;99.90
5200;DHT22;2619;47.868;11.892;2023-04-03T01:50:06;1.80;99.90
5200;DHT22;2619;47.868;11.892;2023-04-03T01:52:32;1.90;99.90
5200;DHT22;2619;47.868;11.892;2023-04-03T01:54:57;1.90;99.90
5200;DHT22;2619;47.868;11.892;2023-04-03T01:57:23;1.90;99.90
5200;DHT22;2619;47.868;11.892;2023-04-03T01:59:48;1.80;99.90
5200;DHT22;2619;47.868;11.892;2023-04-03T02:02:14;1.90;99.90
5200;DHT22;2619;47.868;11.892;2023-04-03T02:04:40;1.80;99.90
5200;DHT22;2619;47.868;11.892;2023-04-03T02:07:06;1.80;99.90
5200;DHT22;2619;47.868;11.892;2023-04-03T02:09:32;1.80;99.90
5200;DHT22;2619;47.868;11.892;2023-04-03T02:11:57;1.80;99.90
5200;DHT22;2619;47.868;11.892;2023-04-03T02:14:23;1.80;99.90
5200;DHT22;2619;47.868;11.892;2023-04-03T02:16:49;1.80;99.90
5200;DHT22;2619;47.868;11.892;2023-04-03T02:19:15;1.80;99.90
5200;DHT22;2619;47.868;11.892;2023-04-03T02:21:40;1.80;99.90
5200;DHT22;2619;47.868;11.892;2023-04-03T02:24:06;1.90;99.90
5200;DHT22;2619;47.868;11.892;2023-04-03T02:26:32;1.90;99.90
5200;DHT22;2619;47.868;11.892;2023-04-03T02:28:57;1.90;99.90
5200;DHT22;2619;47.868;11.892;2023-04-03T02:31:23;1.90;99.90
5200;DHT22;2619;47.868;11.892;2023-04-03T02:33:49;1.90;99.90
5200;DHT22;2619;47.868;11.892;2023-04-03T02:36:15;1.90;99.90
5200;DHT22;2619;47.868;11.892;2023-04-03T02:38:41;1.90;99.90
5200;DHT22;2619;47.868;11.892;2023-04-03T02:41:09;1.90;99.90
5200;DHT22;2619;47.868;11.892;2023-04-03T02:43:36;2.00;99.90
5200;DHT22;2619;47.868;11.892;2023-04-03T02:46:02;2.00;99.90
5200;DHT22;2619;47.868;11.892;2023-04-03T02:48:28;2.00;99.90
5200;DHT22;2619;47.868;11.892;2023-04-03T02:50:54;2.00;99.90
5200;DHT22;2619;47.868;11.892;2023-04-03T02:53:19;1.90;99.90
5200;DHT22;2619;47.868;11.892;2023-04-03T02:55:45;1.90;99.90
5200;DHT22;2619;47.868;11.892;2023-04-03T02:58:11;2.00;99.90
5200;DHT22;2619;47.868;11.892;2023-04-03T03:00:37;2.00;99.90
5200;DHT22;2619;47.868;11.892;2023-04-03T03:03:03;2.00;99.90
5200;DHT22;2619;47.868;11.892;2023-04-03T03:05:29;1.90;99.90
5200;DHT22;2619;47.868;11.892;2023-04-03T03:07:55;2.00;99.90
5200;DHT22;2619;47.868;11.892;2023-04-03T03:10:22;2.00;99.90
5200;DHT22;2619;47.868;11.892;2023-04-03T03:12:47;2.00;99.90
5200;DHT22;2619;47.868;11.892;2023-04-03T03:15:13;2.00;99.90
5200;DHT22;2619;47.868;11.892;2023-04-03T03:17:40;2.00;99.90
5200;DHT22;2619;47.868;11.892;2023-04-03T03:20:07;2.10;99.90
5200;DHT22;2619;47.868;11.892;2023-04-03T03:22:34;2.00;99.90
5200;DHT22;2619;47.868;11.892;2023-04-03T03:25:00;2.00;99.90
5200;DHT22;2619;47.868;11.892;2023-04-03T03:27:26;1.70;99.90
5200;DHT22;2619;47.868;11.892;2023-04-03T03:29:52;1.70;99.90
5200;DHT22;2619;47.868;11.892;2023-04-03T03:32:17;1.80;99.90
5200;DHT22;2619;47.868;11.892;2023-04-03T03:34:43;1.80;99.90
5200;DHT22;2619;47.868;11.892;2023-04-03T03:37:08;1.80;99.90
5200;DHT22;2619;47.868;11.892;2023-04-03T03:39:34;2.00;99.90
5200;DHT22;2619;47.868;11.892;2023-04-03T03:42:00;2.00;99.90
5200;DHT22;2619;47.868;11.892;2023-04-03T03:44:25;2.10;99.90
5200;DHT22;2619;47.868;11.892;2023-04-03T03:46:51;2.00;99.90
5200;DHT22;2619;47.868;11.892;2023-04-03T03:49:17;2.00;99.90
5200;DHT22;2619;47.868;11.892;2023-04-03T03:51:42;2.00;99.90
5200;DHT22;2619;47.868;11.892;2023-04-03T03:54:09;2.00;99.90
5200;DHT22;2619;47.868;11.892;2023-04-03T03:56:34;2.00;99.90
5200;DHT22;2619;47.868;11.892;2023-04-03T03:59:00;1.90;99.90
5200;DHT22;2619;47.868;11.892;2023-04-03T04:01:26;1.80;99.90
5200;DHT22;2619;47.868;11.892;2023-04-03T04:03:51;1.80;99.90
5200;DHT22;2619;47.868;11.892;2023-04-03T04:06:19;1.90;99.90
5200;DHT22;2619;47.868;11.892;2023-04-03T04:08:44;2.00;99.90
5200;DHT22;2619;47.868;11.892;2023-04-03T04:11:10;2.00;99.90
5200;DHT22;2619;47.868;11.892;2023-04-03T04:13:36;2.00;99.90
5200;DHT22;2619;47.868;11.892;2023-04-03T04:16:02;1.90;99.90
5200;DHT22;2619;47.868;11.892;2023-04-03T04:18:27;1.90;99.90
5200;DHT22;2619;47.868;11.892;2023-04-03T04:20:53;1.90;99.90
5200;DHT22;2619;47.868;11.892;2023-04-03T04:23:19;1.90;99.90
5200;DHT22;2619;47.868;11.892;2023-04-03T04:25:46;1.90;99.90
5200;DHT22;2619;47.868;11.892;2023-04-03T04:28:12;1.90;99.90
5200;DHT22;2619;47.868;11.892;2023-04-03T04:30:37;1.90;99.90
5200;DHT22;2619;47.868;11.892;2023-04-03T04:33:03;2.00;99.90
5200;DHT22;2619;47.868;11.892;2023-04-03T04:35:29;2.00;99.90
5200;DHT22;2619;47.868;11.892;2023-04-03T04:37:54;2.00;99.90
5200;DHT22;2619;47.868;11.892;2023-04-03T04:40:20;2.00;99.90
5200;DHT22;2619;47.868;11.892;2023-04-03T04:42:46;2.00;99.90
5200;DHT22;2619;47.868;11.892;2023-04-03T04:45:12;2.00;99.90
5200;DHT22;2619;47.868;11.892;2023-04-03T04:47:37;2.00;99.90
5200;DHT22;2619;47.868;11.892;2023-04-03T04:50:03;2.00;99.90
5200;DHT22;2619;47.868;11.892;2023-04-03T04:52:29;1.90;99.90
5200;DHT22;2619;47.868;11.892;2023-04-03T04:54:55;1.90;99.90
5200;DHT22;2619;47.868;11.892;2023-04-03T04:57:20;2.00;99.90
5200;DHT22;2619;47.868;11.892;2023-04-03T04:59:46;2.00;99.90
5200;DHT22;2619;47.868;11.892;2023-04-03T05:02:12;1.90;99.90
5200;DHT22;2619;47.868;11.892;2023-04-03T05:04:37;2.00;99.90
5200;DHT22;2619;47.868;11.892;2023-04-03T05:07:03;2.00;99.90
5200;DHT22;2619;47.868;11.892;2023-04-03T05:09:29;1.90;99.90
5200;DHT22;2619;47.868;11.892;2023-04-03T05:11:54;2.00;99.90
5200;DHT22;2619;47.868;11.892;2023-04-03T05:14:21;1.90;99.90
5200;DHT22;2619;47.868;11.892;2023-04-03T05:16:47;2.00;99.90
5200;DHT22;2619;47.868;11.892;2023-04-03T05:19:13;2.10;99.90
5200;DHT22;2619;47.868;11.892;2023-04-03T05:21:39;2.00;99.90
5200;DHT22;2619;47.868;11.892;2023-04-03T05:24:04;2.00;99.90
5200;DHT22;2619;47.868;11.892;2023-04-03T05:26:31;2.00;99.90
5200;DHT22;2619;47.868;11.892;2023-04-03T05:28:57;2.00;99.90
5200;DHT22;2619;47.868;11.892;2023-04-03T05:31:22;2.00;99.90
5200;DHT22;2619;47.868;11.892;2023-04-03T05:33:48;2.00;99.90
5200;DHT22;2619;47.868;11.892;2023-04-03T05:36:14;2.10;99.90
5200;DHT22;2619;47.868;11.892;2023-04-03T05:38:40;2.10;99.90
5200;DHT22;2619;47.868;11.892;2023-04-03T05:41:06;2.10;99.90
5200;DHT22;2619;47.868;11.892;2023-04-03T05:43:31;2.00;99.90
5200;DHT22;2619;47.868;11.892;2023-04-03T05:45:58;2.00;99.90
5200;DHT22;2619;47.868;11.892;2023-04-03T05:48:23;2.10;99.90
5200;DHT22;2619;47.868;11.892;2023-04-03T05:50:49;2.10;99.90
5200;DHT22;2619;47.868;11.892;2023-04-03T05:53:22;2.10;99.90
5200;DHT22;2619;47.868;11.892;2023-04-03T05:55:50;2.20;99.90
5200;DHT22;2619;47.868;11.892;2023-04-03T05:58:15;2.20;99.90
5200;DHT22;2619;47.868;11.892;2023-04-03T06:00:41;2.30;99.90
5200;DHT22;2619;47.868;11.892;2023-04-03T06:03:06;2.40;99.90
5200;DHT22;2619;47.868;11.892;2023-04-03T06:05:32;2.50;99.90
5200;DHT22;2619;47.868;11.892;2023-04-03T06:07:58;2.40;99.90
5200;DHT22;2619;47.868;11.892;2023-04-03T06:10:23;2.40;99.90
5200;DHT22;2619;47.868;11.892;2023-04-03T06:12:50;2.40;99.90
5200;DHT22;2619;47.868;11.892;2023-04-03T06:15:15;2.40;99.90
5200;DHT22;2619;47.868;11.892;2023-04-03T06:17:42;2.50;99.90
5200;DHT22;2619;47.868;11.892;2023-04-03T06:20:08;2.60;99.90
5200;DHT22;2619;47.868;11.892;2023-04-03T06:22:35;2.70;99.90
5200;DHT22;2619;47.868;11.892;2023-04-03T06:25:00;2.70;99.90
5200;DHT22;2619;47.868;11.892;2023-04-03T06:27:26;2.80;99.90
5200;DHT22;2619;47.868;11.892;2023-04-03T06:29:52;2.80;99.90
5200;DHT22;2619;47.868;11.892;2023-04-03T06:32:17;2.80;99.90
5200;DHT22;2619;47.868;11.892;2023-04-03T06:34:43;2.80;99.90
5200;DHT22;2619;47.868;11.892;2023-04-03T06:37:17;2.80;99.90
5200;DHT22;2619;47.868;11.892;2023-04-03T06:39:43;2.80;99.90
5200;DHT22;2619;47.868;11.892;2023-04-03T06:42:09;2.80;99.90
5200;DHT22;2619;47.868;11.892;2023-04-03T06:44:35;2.80;99.90
5200;DHT22;2619;47.868;11.892;2023-04-03T06:47:01;2.90;99.90
5200;DHT22;2619;47.868;11.892;2023-04-03T06:49:26;2.90;99.90
5200;DHT22;2619;47.868;11.892;2023-04-03T06:51:52;3.00;99.90
5200;DHT22;2619;47.868;11.892;2023-04-03T06:54:17;2.90;99.90
5200;DHT22;2619;47.868;11.892;2023-04-03T06:56:43;2.90;99.90
5200;DHT22;2619;47.868;11.892;2023-04-03T06:59:11;2.90;99.90
5200;DHT22;2619;47.868;11.892;2023-04-03T07:01:39;2.80;99.90
5200;DHT22;2619;47.868;11.892;2023-04-03T07:04:04;2.80;99.90
5200;DHT22;2619;47.868;11.892;2023-04-03T07:06:31;2.90;99.90
5200;DHT22;2619;47.868;11.892;2023-04-03T07:08:58;2.90;99.90
5200;DHT22;2619;47.868;11.892;2023-04-03T07:11:24;2.90;99.90
5200;DHT22;2619;47.868;11.892;2023-04-03T07:13:50;3.00;99.90
5200;DHT22;2619;47.868;11.892;2023-04-03T07:16:15;3.00;99.90
5200;DHT22;2619;47.868;11.892;2023-04-03T07:18:41;3.10;99.90
5200;DHT22;2619;47.868;11.892;2023-04-03T07:21:07;3.10;99.90
5200;DHT22;2619;47.868;11.892;2023-04-03T07:23:32;3.10;99.90
5200;DHT22;2619;47.868;11.892;2023-04-03T07:25:58;3.10;99.90
5200;DHT22;2619;47.868;11.892;2023-04-03T07:28:24;3.20;99.90
5200;DHT22;2619;47.868;11.892;2023-04-03T07:31:01;3.30;99.90
5200;DHT22;2619;47.868;11.892;2023-04-03T07:33:27;3.50;99.90
5200;DHT22;2619;47.868;11.892;2023-04-03T07:35:52;3.60;99.90
5200;DHT22;2619;47.868;11.892;2023-04-03T07:38:18;3.60;99.90
5200;DHT22;2619;47.868;11.892;2023-04-03T07:40:48;3.70;99.90
5200;DHT22;2619;47.868;11.892;2023-04-03T07:43:15;3.80;99.90
5200;DHT22;2619;47.868;11.892;2023-04-03T07:45:41;4.00;99.90
5200;DHT22;2619;47.868;11.892;2023-04-03T07:48:07;4.20;99.90
5200;DHT22;2619;47.868;11.892;2023-04-03T07:50:33;4.40;99.90
5200;DHT22;2619;47.868;11.892;2023-04-03T07:52:58;4.50;99.90
5200;DHT22;2619;47.868;11.892;2023-04-03T07:55:25;4.80;99.90
5200;DHT22;2619;47.868;11.892;2023-04-03T07:57:51;5.00;99.90
5200;DHT22;2619;47.868;11.892;2023-04-03T08:00:17;5.10;99.90
5200;DHT22;2619;47.868;11.892;2023-04-03T08:02:44;5.30;99.90
5200;DHT22;2619;47.868;11.892;2023-04-03T08:05:10;5.60;99.90
5200;DHT22;2619;47.868;11.892;2023-04-03T08:07:37;5.60;99.90
5200;DHT22;2619;47.868;11.892;2023-04-03T08:10:03;5.90;99.90
5200;DHT22;2619;47.868;11.892;2023-04-03T08:12:29;6.00;99.90
5200;DHT22;2619;47.868;11.892;2023-04-03T08:14:55;5.70;99.90
5200;DHT22;2619;47.868;11.892;2023-04-03T08:17:21;5.70;99.90
5200;DHT22;2619;47.868;11.892;2023-04-03T08:19:47;5.80;99.90
5200;DHT22;2619;47.868;11.892;2023-04-03T08:22:12;5.80;99.90
5200;DHT22;2619;47.868;11.892;2023-04-03T08:24:38;5.80;99.90
5200;DHT22;2619;47.868;11.892;2023-04-03T08:27:03;5.60;99.90
5200;DHT22;2619;47.868;11.892;2023-04-03T08:29:29;5.30;99.90
5200;DHT22;2619;47.868;11.892;2023-04-03T08:31:55;5.20;99.90
5200;DHT22;2619;47.868;11.892;2023-04-03T08:34:20;5.10;99.90
5200;DHT22;2619;47.868;11.892;2023-04-03T08:36:46;5.00;99.90
5200;DHT22;2619;47.868;11.892;2023-04-03T08:39:12;5.00;99.90
5200;DHT22;2619;47.868;11.892;2023-04-03T08:41:40;5.00;99.90
5200;DHT22;2619;47.868;11.892;2023-04-03T08:49:32;5.30;99.90
5200;DHT22;2619;47.868;11.892;2023-04-03T08:52:02;5.20;99.90
5200;DHT22;2619;47.868;11.892;2023-04-03T08:54:35;5.40;99.90
5200;DHT22;2619;47.868;11.892;2023-04-03T08:57:04;5.50;99.90
5200;DHT22;2619;47.868;11.892;2023-04-03T08:59:34;5.40;99.90
5200;DHT22;2619;47.868;11.892;2023-04-03T09:02:04;5.60;99.90
5200;DHT22;2619;47.868;11.892;2023-04-03T09:04:32;5.70;99.90
5200;DHT22;2619;47.868;11.892;2023-04-03T09:07:11;5.80;99.90
5200;DHT22;2619;47.868;11.892;2023-04-03T09:09:41;5.90;99.90
5200;DHT22;2619;47.868;11.892;2023-04-03T09:26:16;6.70;99.90
5200;DHT22;2619;47.868;11.892;2023-04-03T09:28:43;6.70;99.90
5200;DHT22;2619;47.868;11.892;2023-04-03T09:31:37;6.80;99.90
5200;DHT22;2619;47.868;11.892;2023-04-03T09:34:10;6.80;99.90
5200;DHT22;2619;47.868;11.892;2023-04-03T09:36:41;6.70;99.90
5200;DHT22;2619;47.868;11.892;2023-04-03T09:39:14;6.50;99.90
5200;DHT22;2619;47.868;11.892;2023-04-03T09:41:40;6.40;99.90
5200;DHT22;2619;47.868;11.892;2023-04-03T09:44:21;6.30;99.90
5200;DHT22;2619;47.868;11.892;2023-04-03T09:46:47;6.30;99.90
5200;DHT22;2619;47.868;11.892;2023-04-03T09:49:12;6.30;99.90
5200;DHT22;2619;47.868;11.892;2023-04-03T09:51:38;6.40;99.90
5200;DHT22;2619;47.868;11.892;2023-04-03T09:54:26;6.50;99.90
5200;DHT22;2619;47.868;11.892;2023-04-03T09:56:56;6.60;99.90
5200;DHT22;2619;47.868;11.892;2023-04-03T09:59:23;6.80;99.90
5200;DHT22;2619;47.868;11.892;2023-04-03T10:02:00;6.80;99.90
5200;DHT22;2619;47.868;11.892;2023-04-03T10:04:39;6.80;99.90
5200;DHT22;2619;47.868;11.892;2023-04-03T10:07:25;7.00;99.90
5200;DHT22;2619;47.868;11.892;2023-04-03T10:10:38;7.10;99.90
5200;DHT22;2619;47.868;11.892;2023-04-03T10:12:46;6.90;99.90
5200;DHT22;2619;47.868;11.892;2023-04-03T10:15:16;6.80;99.90
5200;DHT22;2619;47.868;11.892;2023-04-03T10:18:02;6.70;99.90
5200;DHT22;2619;47.868;11.892;2023-04-03T10:20:37;6.70;99.90
5200;DHT22;2619;47.868;11.892;2023-04-03T10:28:45;6.80;99.90
5200;DHT22;2619;47.868;11.892;2023-04-03T10:31:21;6.90;99.90
5200;DHT22;2619;47.868;11.892;2023-04-03T10:34:18;6.90;99.90
5200;DHT22;2619;47.868;11.892;2023-04-03T10:37:12;6.80;99.90
5200;DHT22;2619;47.868;11.892;2023-04-03T10:58:35;7.90;99.90
5200;DHT22;2619;47.868;11.892;2023-04-03T11:01:07;8.20;99.90
5200;DHT22;2619;47.868;11.892;2023-04-03T11:03:44;8.30;99.90
5200;DHT22;2619;47.868;11.892;2023-04-03T11:06:14;8.40;99.90
5200;DHT22;2619;47.868;11.892;2023-04-03T11:08:55;8.40;99.90
5200;DHT22;2619;47.868;11.892;2023-04-03T11:11:30;8.10;99.90
5200;DHT22;2619;47.868;11.892;2023-04-03T11:16:45;8.40;99.90
5200;DHT22;2619;47.868;11.892;2023-04-03T11:19:26;8.70;99.90
5200;DHT22;2619;47.868;11.892;2023-04-03T11:22:18;8.90;99.90
5200;DHT22;2619;47.868;11.892;2023-04-03T11:25:03;8.90;99.90
5200;DHT22;2619;47.868;11.892;2023-04-03T11:27:37;8.70;99.90
5200;DHT22;2619;47.868;11.892;2023-04-03T11:30:07;8.70;99.90
5200;DHT22;2619;47.868;11.892;2023-04-03T11:35:55;8.70;99.90
5200;DHT22;2619;47.868;11.892;2023-04-03T11:38:33;8.90;99.90
5200;DHT22;2619;47.868;11.892;2023-04-03T11:41:04;9.00;99.90
5200;DHT22;2619;47.868;11.892;2023-04-03T11:43:32;9.00;99.90
5200;DHT22;2619;47.868;11.892;2023-04-03T11:46:04;8.90;99.90
5200;DHT22;2619;47.868;11.892;2023-04-03T11:51:23;8.40;99.90
5200;DHT22;2619;47.868;11.892;2023-04-03T11:53:47;8.20;99.90
5200;DHT22;2619;47.868;11.892;2023-04-03T12:01:55;7.40;99.90
5200;DHT22;2619;47.868;11.892;2023-04-03T12:04:25;7.10;99.90
5200;DHT22;2619;47.868;11.892;2023-04-03T12:07:02;7.20;99.90
5200;DHT22;2619;47.868;11.892;2023-04-03T12:12:37;7.60;99.90
5200;DHT22;2619;47.868;11.892;2023-04-03T12:17:47;7.60;99.90
5200;DHT22;2619;47.868;11.892;2023-04-03T12:26:48;7.50;99.90
5200;DHT22;2619;47.868;11.892;2023-04-03T12:40:19;6.30;99.90
5200;DHT22;2619;47.868;11.892;2023-04-03T12:45:24;6.20;99.90
5200;DHT22;2619;47.868;11.892;2023-04-03T12:47:52;6.10;99.90
5200;DHT22;2619;47.868;11.892;2023-04-03T12:50:22;6.30;99.90
5200;DHT22;2619;47.868;11.892;2023-04-03T12:53:10;6.40;99.90
5200;DHT22;2619;47.868;11.892;2023-04-03T12:55:37;6.40;99.90
5200;DHT22;2619;47.868;11.892;2023-04-03T12:58:20;6.40;99.90
5200;DHT22;2619;47.868;11.892;2023-04-03T13:00:46;6.30;99.90
5200;DHT22;2619;47.868;11.892;2023-04-03T13:03:26;6.50;99.90
5200;DHT22;2619;47.868;11.892;2023-04-03T13:05:57;6.80;99.90
5200;DHT22;2619;47.868;11.892;2023-04-03T13:08:24;6.90;99.90
5200;DHT22;2619;47.868;11.892;2023-04-03T13:11:16;7.00;99.90
5200;DHT22;2619;47.868;11.892;2023-04-03T13:13:58;6.90;99.90
5200;DHT22;2619;47.868;11.892;2023-04-03T13:16:23;6.90;99.90
5200;DHT22;2619;47.868;11.892;2023-04-03T13:18:52;6.90;99.90
5200;DHT22;2619;47.868;11.892;2023-04-03T13:21:28;7.20;99.90
5200;DHT22;2619;47.868;11.892;2023-04-03T13:24:00;7.10;99.90
5200;DHT22;2619;47.868;11.892;2023-04-03T13:26:31;7.40;99.90
5200;DHT22;2619;47.868;11.892;2023-04-03T13:29:05;7.40;99.90
5200;DHT22;2619;47.868;11.892;2023-04-03T13:31:35;7.40;99.90
5200;DHT22;2619;47.868;11.892;2023-04-03T13:34:12;7.60;99.90
5200;DHT22;2619;47.868;11.892;2023-04-03T13:36:41;7.80;99.90
5200;DHT22;2619;47.868;11.892;2023-04-03T13:41:46;7.90;99.90
5200;DHT22;2619;47.868;11.892;2023-04-03T13:46:52;7.90;99.90
5200;DHT22;2619;47.868;11.892;2023-04-03T13:51:55;7.70;99.90
5200;DHT22;2619;47.868;11.892;2023-04-03T13:54:36;7.70;99.90
5200;DHT22;2619;47.868;11.892;2023-04-03T13:57:10;7.50;99.90
5200;DHT22;2619;47.868;11.892;2023-04-03T13:59:36;7.50;99.90
5200;DHT22;2619;47.868;11.892;2023-04-03T14:04:30;7.60;99.90
5200;DHT22;2619;47.868;11.892;2023-04-03T14:06:57;7.70;99.90
5200;DHT22;2619;47.868;11.892;2023-04-03T14:09:25;7.50;99.90
5200;DHT22;2619;47.868;11.892;2023-04-03T14:11:55;7.40;99.90
5200;DHT22;2619;47.868;11.892;2023-04-03T14:14:27;7.10;99.90
5200;DHT22;2619;47.868;11.892;2023-04-03T14:16:55;7.00;99.90
5200;DHT22;2619;47.868;11.892;2023-04-03T14:19:34;6.80;99.90
5200;DHT22;2619;47.868;11.892;2023-04-03T14:22:11;6.80;99.90
5200;DHT22;2619;47.868;11.892;2023-04-03T14:24:37;7.00;99.90
5200;DHT22;2619;47.868;11.892;2023-04-03T14:27:29;7.20;99.90
5200;DHT22;2619;47.868;11.892;2023-04-03T14:29:57;7.20;99.90
5200;DHT22;2619;47.868;11.892;2023-04-03T14:32:24;7.40;99.90
5200;DHT22;2619;47.868;11.892;2023-04-03T14:34:51;7.60;99.90
5200;DHT22;2619;47.868;11.892;2023-04-03T14:37:23;7.50;99.90
5200;DHT22;2619;47.868;11.892;2023-04-03T14:39:51;7.50;99.90
5200;DHT22;2619;47.868;11.892;2023-04-03T14:42:26;7.70;99.90
5200;DHT22;2619;47.868;11.892;2023-04-03T14:44:52;7.70;99.90
5200;DHT22;2619;47.868;11.892;2023-04-03T14:47:21;7.60;99.90
5200;DHT22;2619;47.868;11.892;2023-04-03T14:49:47;7.40;99.90
5200;DHT22;2619;47.868;11.892;2023-04-03T14:52:31;7.20;99.90
5200;DHT22;2619;47.868;11.892;2023-04-03T14:54:58;7.10;99.90
5200;DHT22;2619;47.868;11.892;2023-04-03T14:57:25;7.20;99.90
5200;DHT22;2619;47.868;11.892;2023-04-03T14:59:52;7.20;99.90
5200;DHT22;2619;47.868;11.892;2023-04-03T15:02:53;7.00;99.90
5200;DHT22;2619;47.868;11.892;2023-04-03T15:05:13;6.80;99.90
5200;DHT22;2619;47.868;11.892;2023-04-03T15:07:46;6.80;99.90
5200;DHT22;2619;47.868;11.892;2023-04-03T15:10:25;6.70;99.90
5200;DHT22;2619;47.868;11.892;2023-04-03T15:12:52;6.50;99.90
5200;DHT22;2619;47.868;11.892;2023-04-03T15:15:19;6.20;99.90
5200;DHT22;2619;47.868;11.892;2023-04-03T15:17:46;6.10;99.90
5200;DHT22;2619;47.868;11.892;2023-04-03T15:20:18;6.00;99.90
5200;DHT22;2619;47.868;11.892;2023-04-03T15:22:44;5.90;99.90
5200;DHT22;2619;47.868;11.892;2023-04-03T15:25:10;5.60;99.90
5200;DHT22;2619;47.868;11.892;2023-04-03T15:27:36;5.10;99.90
5200;DHT22;2619;47.868;11.892;2023-04-03T15:30:05;4.80;99.90
5200;DHT22;2619;47.868;11.892;2023-04-03T15:32:31;4.50;99.90
5200;DHT22;2619;47.868;11.892;2023-04-03T15:34:57;4.40;99.90
5200;DHT22;2619;47.868;11.892;2023-04-03T15:37:23;4.40;99.90
5200;DHT22;2619;47.868;11.892;2023-04-03T15:39:48;4.60;99.90
5200;DHT22;2619;47.868;11.892;2023-04-03T15:42:14;4.70;99.90
5200;DHT22;2619;47.868;11.892;2023-04-03T15:44:40;4.80;99.90
5200;DHT22;2619;47.868;11.892;2023-04-03T15:47:06;4.90;99.90
5200;DHT22;2619;47.868;11.892;2023-04-03T15:49:34;5.10;99.90
5200;DHT22;2619;47.868;11.892;2023-04-03T15:52:00;5.10;99.90
5200;DHT22;2619;47.868;11.892;2023-04-03T15:54:26;5.10;99.90
5200;DHT22;2619;47.868;11.892;2023-04-03T15:56:53;5.20;99.90
5200;DHT22;2619;47.868;11.892;2023-04-03T15:59:19;5.30;99.90
5200;DHT22;2619;47.868;11.892;2023-04-03T16:01:45;5.40;99.90
5200;DHT22;2619;47.868;11.892;2023-04-03T16:04:11;5.30;99.90
5200;DHT22;2619;47.868;11.892;2023-04-03T16:06:37;5.40;99.90
5200;DHT22;2619;47.868;11.892;2023-04-03T16:09:03;5.50;99.90
5200;DHT22;2619;47.868;11.892;2023-04-03T16:11:30;5.70;99.90
5200;DHT22;2619;47.868;11.892;2023-04-03T16:13:56;5.60;99.90
5200;DHT22;2619;47.868;11.892;2023-04-03T16:16:22;5.80;99.90
5200;DHT22;2619;47.868;11.892;2023-04-03T16:18:48;5.90;99.90
5200;DHT22;2619;47.868;11.892;2023-04-03T16:21:16;5.90;99.90
5200;DHT22;2619;47.868;11.892;2023-04-03T16:23:43;5.90;99.90
5200;DHT22;2619;47.868;11.892;2023-04-03T16:26:09;5.90;99.90
5200;DHT22;2619;47.868;11.892;2023-04-03T16:28:35;5.90;99.90
5200;DHT22;2619;47.868;11.892;2023-04-03T16:31:01;5.90;99.90
5200;DHT22;2619;47.868;11.892;2023-04-03T16:33:27;5.80;99.90
5200;DHT22;2619;47.868;11.892;2023-04-03T16:35:53;5.70;99.90
5200;DHT22;2619;47.868;11.892;2023-04-03T16:38:19;5.70;99.90
5200;DHT22;2619;47.868;11.892;2023-04-03T16:40:45;5.50;99.90
5200;DHT22;2619;47.868;11.892;2023-04-03T16:43:11;5.50;99.90
5200;DHT22;2619;47.868;11.892;2023-04-03T16:45:37;5.40;99.90
5200;DHT22;2619;47.868;11.892;2023-04-03T16:48:03;5.30;99.90
5200;DHT22;2619;47.868;11.892;2023-04-03T16:50:28;5.10;99.90
5200;DHT22;2619;47.868;11.892;2023-04-03T16:52:54;5.00;99.90
5200;DHT22;2619;47.868;11.892;2023-04-03T16:55:20;4.80;99.90
5200;DHT22;2619;47.868;11.892;2023-04-03T16:57:46;4.70;99.90
5200;DHT22;2619;47.868;11.892;2023-04-03T17:00:12;4.50;99.90
5200;DHT22;2619;47.868;11.892;2023-04-03T17:02:39;4.40;99.90
5200;DHT22;2619;47.868;11.892;2023-04-03T17:05:06;4.30;99.90
5200;DHT22;2619;47.868;11.892;2023-04-03T17:07:31;4.20;99.90
5200;DHT22;2619;47.868;11.892;2023-04-03T17:09:57;4.10;99.90
5200;DHT22;2619;47.868;11.892;2023-04-03T17:12:23;4.10;99.90
5200;DHT22;2619;47.868;11.892;2023-04-03T17:14:49;4.00;99.90
5200;DHT22;2619;47.868;11.892;2023-04-03T17:17:18;3.90;99.90
5200;DHT22;2619;47.868;11.892;2023-04-03T17:19:45;3.80;99.90
5200;DHT22;2619;47.868;11.892;2023-04-03T17:22:11;3.60;99.90
5200;DHT22;2619;47.868;11.892;2023-04-03T17:24:36;3.40;99.90
5200;DHT22;2619;47.868;11.892;2023-04-03T17:27:02;3.40;99.90
5200;DHT22;2619;47.868;11.892;2023-04-03T17:29:28;3.30;99.90
5200;DHT22;2619;47.868;11.892;2023-04-03T17:31:54;3.10;99.90
5200;DHT22;2619;47.868;11.892;2023-04-03T17:34:19;3.00;99.90
5200;DHT22;2619;47.868;11.892;2023-04-03T17:36:46;2.80;99.90
5200;DHT22;2619;47.868;11.892;2023-04-03T17:39:12;2.60;99.90
5200;DHT22;2619;47.868;11.892;2023-04-03T17:41:38;2.50;99.90
5200;DHT22;2619;47.868;11.892;2023-04-03T17:44:03;2.40;99.90
5200;DHT22;2619;47.868;11.892;2023-04-03T17:46:29;2.40;99.90
5200;DHT22;2619;47.868;11.892;2023-04-03T17:48:54;2.30;99.90
5200;DHT22;2619;47.868;11.892;2023-04-03T17:51:22;2.20;99.90
5200;DHT22;2619;47.868;11.892;2023-04-03T17:53:48;2.20;99.90